createdAt,value
2023-03-24T00:01:28.800Z,87.60
2023-03-24T00:04:31.620Z,88.15
2023-03-24T00:07:35.374Z,86.51
2023-03-24T00:10:38.195Z,86.62
2023-03-24T00:13:41.732Z,88.04
2023-03-24T00:16:45.564Z,89.30
2023-03-24T00:19:48.417Z,89.38
2023-03-24T00:22:57.325Z,89.17
2023-03-24T00:26:03.295Z,89.45
2023-03-24T00:29:09.096Z,88.73
2023-03-24T00:32:11.839Z,89.06
2023-03-24T00:35:16.498Z,89.17
2023-03-24T00:38:19.735Z,89.58
2023-03-24T00:41:25.095Z,88.74
2023-03-24T00:44:27.904Z,89.94
2023-03-24T00:47:32.331Z,90.56
2023-03-24T00:50:35.056Z,90.70
2023-03-24T00:53:43.628Z,89.91
2023-03-24T00:56:49.808Z,90.40
2023-03-24T00:59:54.624Z,91.97
2023-03-24T01:02:58.528Z,92.68
2023-03-24T01:06:04.030Z,94.32
2023-03-24T01:09:07.578Z,94.02
2023-03-24T01:12:10.285Z,93.47
2023-03-24T01:15:17.390Z,94.46
2023-03-24T01:18:20.830Z,95.64
2023-03-24T01:21:25.522Z,95.48
2023-03-24T01:24:28.251Z,95.02
2023-03-24T01:27:31.892Z,95.07
2023-03-24T01:30:34.710Z,95.67
2023-03-24T01:33:38.346Z,96.07
2023-03-24T01:36:41.094Z,95.86
2023-03-24T01:39:43.824Z,95.74
2023-03-24T01:42:46.742Z,94.96
2023-03-24T01:46:15.641Z,94.79
2023-03-24T01:49:18.425Z,95.75
2023-03-24T01:52:32.172Z,96.16
2023-03-24T01:55:34.941Z,95.33
2023-03-24T01:58:43.933Z,94.75
2023-03-24T02:02:03.526Z,95.08
2023-03-24T02:05:16.279Z,95.59
2023-03-24T02:08:55.458Z,96.56
2023-03-24T02:11:59.421Z,96.14
2023-03-24T02:15:03.894Z,95.74
2023-03-24T02:18:30.914Z,95.56
2023-03-24T02:21:45.598Z,95.45
2023-03-24T02:25:07.033Z,95.66
2023-03-24T02:28:15.728Z,96.11
2023-03-24T02:32:05.423Z,96.84
2023-03-24T02:35:38.479Z,96.49
2023-03-24T02:38:59.358Z,95.76
2023-03-24T02:42:04.977Z,95.67
2023-03-24T02:45:19.966Z,95.39
2023-03-24T02:48:43.048Z,95.81
2023-03-24T02:52:05.792Z,95.11
2023-03-24T02:55:19.392Z,94.87
2023-03-24T02:58:59.030Z,95.00
2023-03-24T03:02:08.818Z,96.29
2023-03-24T03:05:35.844Z,96.61
2023-03-24T03:08:39.763Z,96.63
2023-03-24T03:11:47.106Z,95.83
2023-03-24T03:14:55.061Z,94.79
2023-03-24T03:18:07.519Z,96.21
2023-03-24T03:21:14.451Z,97.37
2023-03-24T03:24:27.376Z,97.58
2023-03-24T03:27:38.967Z,96.99
2023-03-24T03:30:46.524Z,96.15
2023-03-24T03:33:58.609Z,95.25
2023-03-24T03:37:14.658Z,95.21
2023-03-24T03:40:27.810Z,94.71
2023-03-24T03:43:37.890Z,94.14
2023-03-24T03:46:42.254Z,94.21
2023-03-24T03:49:50.681Z,95.08
2023-03-24T03:52:53.786Z,95.05
2023-03-24T03:55:57.136Z,95.88
2023-03-24T03:59:00.520Z,94.00
2023-03-24T04:02:28.366Z,93.59
2023-03-24T04:05:50.884Z,94.40
2023-03-24T04:09:31.952Z,94.37
2023-03-24T04:13:05.776Z,95.09
2023-03-24T04:17:05.146Z,95.58
2023-03-24T04:20:34.457Z,95.87
2023-03-24T04:23:44.730Z,95.72
2023-03-24T04:27:09.518Z,96.90
2023-03-24T04:30:23.408Z,97.02
2023-03-24T04:33:43.402Z,96.32
2023-03-24T04:36:54.561Z,95.95
2023-03-24T04:40:13.066Z,96.19
2023-03-24T04:43:18.129Z,96.93
2023-03-24T04:46:21.727Z,96.71
2023-03-24T04:49:30.897Z,95.23
2023-03-24T04:52:33.549Z,93.25
2023-03-24T04:55:50.224Z,92.78
2023-03-24T04:59:03.918Z,93.11
2023-03-24T05:02:07.584Z,92.78
2023-03-24T05:05:13.077Z,93.48
2023-03-24T05:08:20.824Z,92.58
2023-03-24T05:11:26.110Z,91.84
2023-03-24T05:14:36.710Z,92.34
2023-03-24T05:17:41.384Z,93.46
2023-03-24T05:20:44.045Z,93.91
2023-03-24T05:23:53.337Z,93.92
2023-03-24T05:26:55.996Z,93.11
2023-03-24T05:29:58.920Z,92.94
2023-03-24T05:33:04.386Z,93.00
2023-03-24T05:36:07.409Z,92.19
2023-03-24T05:39:10.514Z,92.78
2023-03-24T05:42:23.119Z,92.50
2023-03-24T05:45:26.180Z,92.18
2023-03-24T05:48:29.673Z,91.39
2023-03-24T05:51:46.604Z,90.33
2023-03-24T05:54:52.277Z,89.93
2023-03-24T05:57:59.925Z,89.02
2023-03-24T06:01:25.459Z,88.19
2023-03-24T06:04:36.007Z,86.90
2023-03-24T06:07:48.872Z,86.23
2023-03-24T06:10:53.606Z,85.86
2023-03-24T06:14:00.306Z,84.94
2023-03-24T06:17:08.129Z,84.57
2023-03-24T06:20:15.972Z,85.06
2023-03-24T06:23:27.940Z,83.98
2023-03-24T06:26:44.925Z,83.21
2023-03-24T06:29:50.170Z,82.50
2023-03-24T06:32:52.954Z,81.32
2023-03-24T06:36:01.913Z,80.64
2023-03-24T06:39:06.660Z,80.48
2023-03-24T06:42:10.018Z,81.38
2023-03-24T06:45:12.900Z,82.57
2023-03-24T06:48:15.582Z,82.00
2023-03-24T06:51:18.489Z,81.23
2023-03-24T06:54:22.435Z,82.39
2023-03-24T06:57:25.281Z,81.39
2023-03-24T07:00:48.406Z,81.15
2023-03-24T07:04:02.703Z,79.83
2023-03-24T07:10:50.588Z,77.29
2023-03-24T07:13:53.233Z,75.59
2023-03-24T07:16:56.200Z,74.93
2023-03-24T07:20:20.391Z,72.66
2023-03-24T07:23:27.748Z,72.17
2023-03-24T07:26:41.777Z,67.89
2023-03-24T07:29:52.925Z,66.91
2023-03-24T07:33:13.010Z,64.44
2023-03-24T07:36:18.648Z,63.60
2023-03-24T07:39:21.366Z,60.98
2023-03-24T07:42:24.101Z,59.28
2023-03-24T07:45:46.277Z,59.28
2023-03-24T07:48:49.631Z,58.47
2023-03-24T07:51:53.950Z,59.11
2023-03-24T07:55:07.198Z,58.77
2023-03-24T07:58:27.467Z,59.21
2023-03-24T08:01:56.712Z,59.47
2023-03-24T08:05:22.774Z,57.46
2023-03-24T08:08:45.066Z,57.44
2023-03-24T08:11:47.690Z,57.26
2023-03-24T08:14:50.502Z,56.07
2023-03-24T08:17:53.461Z,56.03
2023-03-24T08:20:58.774Z,54.15
2023-03-24T08:24:01.341Z,54.20
2023-03-24T08:27:06.358Z,52.75
2023-03-24T08:30:13.486Z,51.79
2023-03-24T08:33:16.662Z,51.13
2023-03-24T08:36:19.347Z,50.62
2023-03-24T08:39:22.017Z,50.73
2023-03-24T08:42:25.944Z,50.74
2023-03-24T08:45:30.751Z,50.67
2023-03-24T08:48:34.073Z,50.05
2023-03-24T08:51:37.224Z,49.46
2023-03-24T08:54:39.955Z,49.94
2023-03-24T08:57:42.540Z,49.67
2023-03-24T09:00:46.751Z,48.60
2023-03-24T09:03:49.552Z,48.89
2023-03-24T09:06:53.724Z,48.56
2023-03-24T09:09:56.436Z,47.85
2023-03-24T09:12:59.025Z,47.34
2023-03-24T09:16:03.721Z,47.15
2023-03-24T09:19:06.378Z,45.88
2023-03-24T09:22:09.033Z,45.04
2023-03-24T09:25:14.367Z,44.86
2023-03-24T09:28:17.072Z,45.31
2023-03-24T09:31:19.693Z,44.49
2023-03-24T09:34:22.282Z,43.00
2023-03-24T09:37:24.887Z,43.15
2023-03-24T09:40:29.804Z,43.08
2023-03-24T09:44:00.262Z,42.20
2023-03-24T09:47:17.062Z,42.27
2023-03-24T09:50:34.374Z,41.96
2023-03-24T09:54:00.422Z,41.15
2023-03-24T09:57:04.152Z,41.29
2023-03-24T10:00:28.851Z,40.19
2023-03-24T10:03:31.739Z,40.01
2023-03-24T10:06:40.173Z,40.46
2023-03-24T10:09:44.549Z,40.57
2023-03-24T10:12:49.586Z,39.76
2023-03-24T10:16:19.874Z,41.56
2023-03-24T10:19:48.719Z,41.18
2023-03-24T10:22:54.536Z,40.86
2023-03-24T10:25:59.950Z,40.89
2023-03-24T10:29:23.218Z,41.01
2023-03-24T10:32:27.979Z,40.56
2023-03-24T10:35:37.476Z,40.64
2023-03-24T10:38:40.167Z,40.21
2023-03-24T10:41:44.064Z,40.22
2023-03-24T10:44:48.518Z,39.54
2023-03-24T10:47:52.497Z,40.37
2023-03-24T10:50:58.849Z,38.47
2023-03-24T10:54:16.947Z,39.24
2023-03-24T10:57:19.653Z,38.84
2023-03-24T11:00:32.545Z,39.09
2023-03-24T11:03:38.119Z,39.12
2023-03-24T11:07:04.353Z,39.10
2023-03-24T11:10:10.204Z,40.17
2023-03-24T11:13:26.581Z,37.50
2023-03-24T11:16:47.729Z,39.35
2023-03-24T11:19:55.291Z,37.69
2023-03-24T11:23:04.503Z,38.68
2023-03-24T11:26:30.085Z,37.51
2023-03-24T11:29:40.213Z,38.37
2023-03-24T11:32:47.197Z,37.34
2023-03-24T11:35:59.050Z,37.38
2023-03-24T11:39:20.122Z,37.67
2023-03-24T11:42:27.616Z,36.66
2023-03-24T11:45:36.156Z,36.83
2023-03-24T11:48:51.113Z,35.80
2023-03-24T11:51:54.977Z,37.39
2023-03-24T11:54:57.691Z,35.64
2023-03-24T11:58:11.710Z,36.80
2023-03-24T12:01:20.346Z,36.38
2023-03-24T12:04:55.337Z,36.50
2023-03-24T12:08:09.946Z,35.43
2023-03-24T12:11:27.534Z,34.33
2023-03-24T12:14:39.469Z,35.43
2023-03-24T12:17:47.670Z,34.53
2023-03-24T12:21:08.619Z,34.89
2023-03-24T12:24:42.302Z,35.54
2023-03-24T12:28:03.247Z,36.22
2023-03-24T12:31:39.845Z,35.46
2023-03-24T12:35:04.201Z,35.84
2023-03-24T12:38:25.020Z,35.82
2023-03-24T12:41:27.519Z,36.05
2023-03-24T12:45:03.953Z,36.04
2023-03-24T12:49:02.797Z,35.81
2023-03-24T12:52:20.547Z,37.18
2023-03-24T12:55:31.103Z,37.06
2023-03-24T12:58:58.806Z,36.62
2023-03-24T13:02:20.873Z,36.33
2023-03-24T13:05:35.890Z,35.51
2023-03-24T13:08:41.618Z,36.55
2023-03-24T13:11:58.812Z,37.16
2023-03-24T13:15:18.623Z,34.63
2023-03-24T13:18:42.492Z,35.57
2023-03-24T13:21:45.581Z,34.88
2023-03-24T13:24:48.689Z,35.60
2023-03-24T13:27:53.443Z,35.21
2023-03-24T13:30:56.895Z,36.08
2023-03-24T13:34:00.821Z,36.20
2023-03-24T13:37:06.737Z,35.77
2023-03-24T13:40:30.086Z,36.19
2023-03-24T13:43:34.049Z,36.38
2023-03-24T13:46:41.282Z,36.24
2023-03-24T13:50:02.645Z,35.29
2023-03-24T13:53:13.013Z,33.92
2023-03-24T13:56:27.744Z,33.59
2023-03-24T13:59:34.192Z,34.15
2023-03-24T14:02:50.633Z,33.67
2023-03-24T14:06:02.621Z,33.66
2023-03-24T14:09:06.230Z,32.88
2023-03-24T14:12:16.742Z,34.20
2023-03-24T14:15:30.032Z,31.84
2023-03-24T14:18:32.789Z,31.67
2023-03-24T14:21:37.469Z,31.49
2023-03-24T14:24:46.303Z,32.02
2023-03-24T14:27:51.434Z,31.32
2023-03-24T14:31:13.488Z,30.17
2023-03-24T14:34:25.505Z,32.10
2023-03-24T14:37:29.124Z,32.49
2023-03-24T14:40:43.957Z,32.23
2023-03-24T14:43:46.678Z,31.04
2023-03-24T14:46:51.777Z,29.29
2023-03-24T14:49:55.946Z,28.45
2023-03-24T14:53:01.403Z,29.03
2023-03-24T14:56:06.573Z,30.03
2023-03-24T14:59:36.833Z,30.82
2023-03-24T15:02:45.269Z,31.39
2023-03-24T15:05:47.882Z,32.15
2023-03-24T15:08:52.394Z,33.58
2023-03-24T15:11:57.184Z,34.89
2023-03-24T15:15:00.993Z,35.54
2023-03-24T15:18:04.270Z,33.11
2023-03-24T15:21:37.480Z,33.07
2023-03-24T15:24:43.529Z,33.85
2023-03-24T15:27:51.164Z,33.91
2023-03-24T15:30:56.273Z,35.40
2023-03-24T15:34:23.267Z,34.88
2023-03-24T15:37:35.829Z,35.99
2023-03-24T15:40:41.275Z,37.24
2023-03-24T15:43:46.299Z,38.53
2023-03-24T15:46:49.330Z,39.34
2023-03-24T15:49:56.463Z,40.31
2023-03-24T15:53:05.532Z,40.58
2023-03-24T15:56:25.115Z,41.32
2023-03-24T15:59:37.282Z,41.46
2023-03-24T16:05:51.726Z,41.67
2023-03-24T16:08:54.466Z,41.87
2023-03-24T16:11:57.126Z,41.41
2023-03-24T16:15:00.052Z,41.93
2023-03-24T16:18:03.686Z,42.10
2023-03-24T16:21:12.645Z,42.13
2023-03-24T16:24:15.392Z,42.49
2023-03-24T16:27:18.029Z,42.67
2023-03-24T16:30:25.182Z,43.20
2023-03-24T16:33:28.272Z,44.47
2023-03-24T16:36:31.022Z,44.64
2023-03-24T16:39:33.611Z,45.10
2023-03-24T16:42:36.140Z,44.93
2023-03-24T16:45:38.863Z,45.34
2023-03-24T16:48:42.196Z,45.70
2023-03-24T16:51:45.505Z,46.10
2023-03-24T16:54:48.130Z,45.58
2023-03-24T16:57:50.679Z,45.87
2023-03-24T17:00:53.633Z,46.27
2023-03-24T17:03:58.759Z,47.34
2023-03-24T17:07:01.485Z,48.44
2023-03-24T17:10:05.062Z,49.67
2023-03-24T17:13:07.678Z,50.10
2023-03-24T17:16:10.627Z,51.02
2023-03-24T17:19:14.870Z,51.70
2023-03-24T17:22:18.980Z,52.45
2023-03-24T17:25:23.164Z,52.88
2023-03-24T17:28:26.014Z,53.34
2023-03-24T17:31:28.830Z,53.39
2023-03-24T17:34:32.024Z,54.31
2023-03-24T17:37:34.632Z,55.43
2023-03-24T17:40:37.364Z,55.09
2023-03-24T17:43:40.502Z,54.77
2023-03-24T17:46:43.240Z,53.65
2023-03-24T17:49:46.266Z,53.50
2023-03-24T17:52:49.221Z,52.97
2023-03-24T17:55:56.510Z,52.66
2023-03-24T17:58:59.278Z,52.51
2023-03-24T18:02:02.002Z,52.56
2023-03-24T18:05:05.918Z,53.16
2023-03-24T18:08:08.939Z,53.34
2023-03-24T18:11:14.531Z,54.22
2023-03-24T18:14:17.283Z,53.62
2023-03-24T18:17:20.147Z,53.48
2023-03-24T18:20:23.077Z,54.04
2023-03-24T18:23:25.908Z,54.63
2023-03-24T18:26:29.835Z,55.08
2023-03-24T18:29:32.450Z,57.64
2023-03-24T18:32:36.066Z,57.44
2023-03-24T18:35:40.774Z,57.56
2023-03-24T18:38:44.189Z,56.87
2023-03-24T18:41:48.132Z,56.78
2023-03-24T18:44:50.999Z,56.97
2023-03-24T18:47:53.852Z,57.59
2023-03-24T18:50:56.631Z,56.95
2023-03-24T18:53:59.484Z,57.24
2023-03-24T18:57:02.466Z,57.34
2023-03-24T19:00:09.862Z,57.46
2023-03-24T19:03:13.413Z,57.24
2023-03-24T19:06:16.696Z,56.98
2023-03-24T19:09:22.209Z,57.07
2023-03-24T19:12:25.151Z,57.54
2023-03-24T19:15:29.931Z,57.43
2023-03-24T19:18:32.744Z,57.58
2023-03-24T19:21:35.852Z,58.26
2023-03-24T19:24:38.669Z,58.63
2023-03-24T19:27:44.707Z,59.51
2023-03-24T19:30:47.565Z,60.09
2023-03-24T19:33:52.415Z,59.97
2023-03-24T19:36:56.561Z,60.71
2023-03-24T19:40:00.217Z,60.34
2023-03-24T19:43:03.080Z,60.61
2023-03-24T19:46:06.652Z,60.10
2023-03-24T19:49:09.585Z,60.42
2023-03-24T19:52:12.494Z,60.67
2023-03-24T19:55:15.645Z,60.70
2023-03-24T19:58:18.636Z,61.22
2023-03-24T20:01:21.643Z,62.51
2023-03-24T20:04:25.852Z,62.60
2023-03-24T20:07:28.940Z,63.41
2023-03-24T20:10:31.772Z,64.56
2023-03-24T20:13:35.756Z,65.43
2023-03-24T20:16:38.585Z,65.70
2023-03-24T20:19:41.569Z,65.28
2023-03-24T20:22:48.902Z,65.48
2023-03-24T20:25:52.262Z,65.37
2023-03-24T20:28:55.531Z,66.04
2023-03-24T20:31:58.333Z,65.78
2023-03-24T20:35:01.338Z,66.01
2023-03-24T20:38:04.158Z,66.49
2023-03-24T20:41:08.062Z,66.94
2023-03-24T20:44:11.642Z,67.13
2023-03-24T20:47:14.525Z,68.37
2023-03-24T20:50:17.364Z,68.83
2023-03-24T20:53:20.347Z,68.25
2023-03-24T20:56:23.146Z,68.59
2023-03-24T20:59:26.347Z,69.85
2023-03-24T21:02:31.838Z,69.87
2023-03-24T21:05:34.472Z,70.47
2023-03-24T21:08:37.772Z,71.26
2023-03-24T21:11:41.390Z,72.03
2023-03-24T21:14:46.891Z,72.86
2023-03-24T21:17:49.814Z,73.33
2023-03-24T21:20:57.546Z,73.10
2023-03-24T21:24:00.655Z,73.30
2023-03-24T21:27:03.420Z,73.19
2023-03-24T21:30:08.356Z,73.85
2023-03-24T21:33:11.392Z,73.56
2023-03-24T21:36:14.417Z,73.75
2023-03-24T21:39:17.330Z,73.58
2023-03-24T21:42:22.924Z,73.58
2023-03-24T21:45:27.689Z,74.35
2023-03-24T21:48:33.060Z,75.31
2023-03-24T21:51:37.004Z,75.31
2023-03-24T21:54:41.908Z,75.60
2023-03-24T21:57:45.651Z,75.97
2023-03-24T22:00:49.979Z,76.01
2023-03-24T22:03:54.543Z,77.11
2023-03-24T22:06:57.416Z,77.78
2023-03-24T22:10:03.468Z,77.50
2023-03-24T22:13:06.090Z,78.17
2023-03-24T22:16:08.918Z,79.53
2023-03-24T22:19:11.606Z,80.09
2023-03-24T22:22:15.101Z,80.72
2023-03-24T22:25:18.657Z,80.86
2023-03-24T22:28:21.513Z,80.21
2023-03-24T22:31:24.811Z,81.40
2023-03-24T22:34:27.852Z,80.81
2023-03-24T22:37:30.744Z,80.41
2023-03-24T22:40:34.035Z,80.40
2023-03-24T22:43:36.999Z,81.10
2023-03-24T22:46:39.744Z,81.06
2023-03-24T22:49:42.872Z,81.11
2023-03-24T22:52:45.611Z,80.54
2023-03-24T22:55:48.987Z,80.54
2023-03-24T22:58:52.016Z,79.72
2023-03-24T23:02:06.405Z,79.19
2023-03-24T23:05:12.510Z,77.92
2023-03-24T23:08:15.762Z,77.67
2023-03-24T23:11:18.336Z,78.18
2023-03-24T23:14:21.021Z,77.42
2023-03-24T23:17:24.498Z,76.54
2023-03-24T23:20:28.440Z,75.94
2023-03-24T23:23:31.749Z,75.77
2023-03-24T23:26:34.395Z,75.76
2023-03-24T23:29:40.891Z,76.22
2023-03-24T23:32:47.133Z,76.39
2023-03-24T23:35:55.534Z,76.08
2023-03-24T23:38:58.201Z,75.88
2023-03-24T23:42:00.795Z,76.24
2023-03-24T23:45:05.184Z,76.00
2023-03-24T23:48:08.049Z,75.66
2023-03-24T23:51:10.965Z,75.23
2023-03-24T23:54:13.646Z,75.61
2023-03-24T23:57:16.850Z,74.90
